Aeroporto :
LOGIN :

Iscrizione | Disclaimer

   EN    FR    IT 

 










Sommario :    VFR   VFR Marginale   IFR   IFR Intensivo   IFR Molto Intensivo
Visibilità : 
Base nubi : 
>= 8 km
>= 3000ft
5 / 8 km
1000 / 3000 ft
1500m / 5 km
500 / 1000 ft
800 / 1500m
200 / 500 ft
< 800m
< 200 ft
Simboli :   Temporali  Nebbia  Neve Forte  Precipitazioni Forti  Vento > 20 kt
SIGMETs :   Varie  Temporali  Ghiacco  Turbolenza  Onda orograficha  Ceneri Vulcaniche






- Altitudine del aeroporto : 3245 ft
- Codice IATA : TID


DAOB - Bou Chekif - Tiaret

ULTIMO METAR :
  • 091800Z 22005KT 9999 SCT026 17/10 Q1019

METARs OBSOLETI :
  • 091700Z 21010KT 9999 SCT026 SCT090 18/11 Q1019
  • 091600Z 32003KT 9999 SCT026 SCT090 20/07 Q1018

TAF TAF DAOB
Valido dal 09 a 18 ore il 10 a 18 ore UTC


091700Z 0918/1018 28008KT 9999 FEW026 SCT090
TEMPO 0918/0922 FEW026TCU FEW030CB
PROB30
TEMPO 0918/0920 VRB15G25KT 4000 -TSRA FEW030CB
PROB30
TEMPO 1002/1014 28015G25KT 4000 -TSRA FEW030CB



MetMap, La meteo Aeronautica in un colpo d'occhio ! - Copyright ORBIFLY Dicembre 2007 - Disclaimer

ORBIFLY MET'MAP TEAM :

Programmazione e sviluppo : Alexandra Zaïnal
Concezione : Baudouin d'Aumeries
Aiuto per la programmazione : Marc-Olivier Méhu
Supporto tecnico e logistico : Manuel Goepfert
Aiuto per la traduzione : Arnaldo La Scala

Contatto : metmap@orbifly.com




FONTI E CREDITI :

   NOAA